Time;durP1;ratioP1;P1;durP2;ratioP2;P2;SDS_P1;SDS_P2;PMS_P1;PMS_P2;Temp;Humidity;BMP_temperature;BMP_pressure;BME280_temperature;BME280_humidity;BME280_pressure;Samples;Min_cycle;Max_cycle;Signal;HPM_P1;HPM_P2
2023/03/15 00:01:27;;;;;;;;;;;;;;;28.09;59.30;101079.72;5056012;28;70229;-41
2023/03/15 00:03:58;;;;;;;;;;;;;;;28.12;60.42;101087.41;5045424;28;65691;-41
2023/03/15 00:06:32;;;;;;;;;;;;;;;28.15;61.04;101093.22;5061217;27;68406;-41
2023/03/15 00:09:03;;;;;;;;;;;;;;;28.20;61.90;101103.44;5047243;28;65908;-40
2023/03/15 00:11:33;;;;;;;;;;;;;;;28.23;62.02;101105.75;5047378;28;70275;-40
2023/03/15 00:14:04;;;;;;;;;;;;;;;28.24;61.68;101105.53;5041961;28;65908;-40
2023/03/15 00:16:35;;;;;;;;;;;;;;;28.27;61.80;101120.47;5048338;28;70294;-41
2023/03/15 00:19:05;;;;;;;;;;;;;;;28.28;61.85;101120.31;5051653;28;66814;-43
2023/03/15 00:21:35;;;;;;;;;;;;;;;28.28;62.07;101120.31;5050492;28;69399;-43
2023/03/15 00:24:06;;;;;;;;;;;;;;;28.31;62.00;101129.03;5042546;27;66580;-42
2023/03/15 00:26:36;;;;;;;;;;;;;;;28.31;61.96;101134.44;5046888;28;69289;-42
2023/03/15 00:29:09;;;;;;;;;;;;;;;28.34;61.65;101137.56;5050950;28;66180;-41
2023/03/15 00:31:39;;;;;;;;;;;;;;;28.32;61.95;101131.53;5046098;28;70285;-41
2023/03/15 00:34:12;;;;;;;;;;;;;;;28.36;61.47;101140.91;5052119;28;65694;-41
2023/03/15 00:36:42;;;;;;;;;;;;;;;28.40;61.79;101142.16;5052033;27;70648;-42
2023/03/15 00:39:14;;;;;;;;;;;;;;;28.40;61.38;101144.88;5040604;28;66306;-40
2023/03/15 00:41:44;;;;;;;;;;;;;;;28.43;62.08;101141.78;5051828;28;70235;-41
2023/03/15 00:44:15;;;;;;;;;;;;;;;28.46;61.78;101143.28;5056850;28;66336;-41
2023/03/15 00:46:45;;;;;;;;;;;;;;;28.45;61.40;101131.66;5044738;28;69705;-40
2023/03/15 00:49:18;;;;;;;;;;;;;;;28.40;60.19;101150.25;5049581;28;66740;-41
2023/03/15 00:51:48;;;;;;;;;;;;;;;28.41;59.41;101157.31;5048938;28;70642;-40
2023/03/15 00:54:18;;;;;;;;;;;;;;;28.42;59.09;101161.72;5055588;28;66148;-40
2023/03/15 00:56:48;;;;;;;;;;;;;;;28.45;58.76;101165.91;5045194;28;69944;-42
2023/03/15 00:59:18;;;;;;;;;;;;;;;28.46;58.50;101160.28;5049565;27;66634;-40
2023/03/15 01:01:50;;;;;;;;;;;;;;;28.48;58.25;101163.63;5047346;28;70351;-41
2023/03/15 01:04:22;;;;;;;;;;;;;;;28.50;58.08;101166.97;5063830;27;66666;-41
2023/03/15 01:06:53;;;;;;;;;;;;;;;28.51;58.43;101174.03;5064246;27;70095;-41
2023/03/15 01:09:23;;;;;;;;;;;;;;;28.54;57.81;101177.38;5046846;28;66655;-40
2023/03/15 01:11:53;;;;;;;;;;;;;;;28.56;57.73;101176.16;5062848;28;70934;-40
2023/03/15 01:14:24;;;;;;;;;;;;;;;28.58;57.36;101184.84;5050114;28;66041;-40
2023/03/15 01:16:54;;;;;;;;;;;;;;;28.59;57.79;101180.31;5042282;28;69340;-42
2023/03/15 01:19:24;;;;;;;;;;;;;;;28.61;57.39;101189.03;5044607;28;67499;-42
2023/03/15 01:21:54;;;;;;;;;;;;;;;28.62;57.04;101185.31;5048752;28;70303;-41
2023/03/15 01:24:24;;;;;;;;;;;;;;;28.64;56.96;101188.63;5050517;28;66247;-39
2023/03/15 01:26:55;;;;;;;;;;;;;;;28.65;56.77;101198.41;5049815;28;70589;-41
2023/03/15 01:29:26;;;;;;;;;;;;;;;28.67;57.07;101193.66;5081239;27;66514;-44
2023/03/15 01:31:56;;;;;;;;;;;;;;;28.67;56.66;101196.34;5051135;28;70220;-42
2023/03/15 01:34:26;;;;;;;;;;;;;;;28.69;56.71;101197.81;5061064;27;66641;-41
2023/03/15 01:36:57;;;;;;;;;;;;;;;28.72;56.51;101201.97;5055548;28;70420;-41
2023/03/15 01:39:33;;;;;;;;;;;;;;;28.73;56.63;101203.66;5048382;28;65953;-40
2023/03/15 01:42:03;;;;;;;;;;;;;;;28.75;56.27;101196.19;5046539;27;70385;-42
2023/03/15 01:44:52;;;;;;;;;;;;;;;28.77;56.32;101198.69;5060740;27;66911;-43
2023/03/15 01:47:25;;;;;;;;;;;;;;;28.79;56.45;101200.16;5058681;27;69876;-41
2023/03/15 01:50:02;;;;;;;;;;;;;;;28.80;55.95;101199.13;5041900;28;67035;-39
2023/03/15 01:52:35;;;;;;;;;;;;;;;28.82;55.88;101201.63;5033461;28;69238;-40
2023/03/15 01:55:06;;;;;;;;;;;;;;;28.83;55.81;101198.72;5043909;28;66328;-41
2023/03/15 01:57:40;;;;;;;;;;;;;;;28.84;55.85;101205.81;5059917;28;69572;-41
2023/03/15 02:00:13;;;;;;;;;;;;;;;28.87;55.66;101205.41;5078220;27;66363;-41
2023/03/15 02:02:55;;;;;;;;;;;;;;;28.89;55.52;101202.50;5048039;28;70556;-42
2023/03/15 02:05:31;;;;;;;;;;;;;;;28.90;55.45;101210.41;5048085;28;67437;-40
2023/03/15 02:08:06;;;;;;;;;;;;;;;28.93;55.44;101204.59;5047374;28;70546;-40
2023/03/15 02:10:58;;;;;;;;;;;;;;;28.95;55.21;101207.94;5049144;28;66654;-41
2023/03/15 02:13:30;;;;;;;;;;;;;;;28.98;55.62;101209.41;5052269;28;70602;-41
2023/03/15 02:16:05;;;;;;;;;;;;;;;29.00;55.63;101210.03;5051261;28;66724;-41
2023/03/15 02:18:51;;;;;;;;;;;;;;;29.02;55.13;101207.13;5089120;27;70692;-40
2023/03/15 02:21:43;;;;;;;;;;;;;;;29.05;55.09;101214.88;5046844;28;67058;-41
2023/03/15 02:24:23;;;;;;;;;;;;;;;29.06;55.18;101205.72;5050053;28;70177;-40
2023/03/15 02:26:55;;;;;;;;;;;;;;;29.08;54.80;101211.75;5049802;28;65631;-40
2023/03/15 02:29:27;;;;;;;;;;;;;;;29.10;55.13;101207.00;5040625;28;70126;-41
2023/03/15 02:31:57;;;;;;;;;;;;;;;29.13;55.24;101214.69;5049855;28;66944;-41
2023/03/15 02:34:27;;;;;;;;;;;;;;;29.14;55.03;101203.72;5046078;28;70570;-41
2023/03/15 02:36:58;;;;;;;;;;;;;;;29.17;55.02;101207.88;5083851;27;67203;-40
2023/03/15 02:39:28;;;;;;;;;;;;;;;29.20;54.87;101207.47;5040306;28;70970;-40
2023/03/15 02:41:58;;;;;;;;;;;;;;;29.23;54.29;101208.94;5084115;27;66736;-40
2023/03/15 02:44:30;;;;;;;;;;;;;;;29.25;54.17;101213.09;5041778;28;70367;-41
2023/03/15 02:47:05;;;;;;;;;;;;;;;29.29;54.22;101208.13;5036803;28;66964;-40
2023/03/15 02:49:41;;;;;;;;;;;;;;;29.30;54.51;101205.22;5053719;28;70414;-40
2023/03/15 02:52:12;;;;;;;;;;;;;;;29.31;54.37;101196.09;5043558;28;67372;-41
2023/03/15 02:54:42;;;;;;;;;;;;;;;29.35;54.08;101201.91;5056078;27;70655;-40
2023/03/15 02:57:14;;;;;;;;;;;;;;;29.36;54.09;101193.63;5055774;27;66372;-40
2023/03/15 02:59:49;;;;;;;;;;;;;;;29.40;54.35;101194.03;5045294;28;69600;-40
2023/03/15 03:02:20;;;;;;;;;;;;;;;29.43;53.77;101190.09;5038956;28;66150;-40
2023/03/15 03:04:51;;;;;;;;;;;;;;;28.95;54.13;101121.53;5049466;27;70870;-40
2023/03/15 03:07:21;;;;;;;;;;;;;;;29.48;53.77;101190.34;5057855;27;65692;-40
2023/03/15 03:09:58;;;;;;;;;;;;;;;29.51;53.90;101184.50;5054972;28;70301;-40
2023/03/15 03:12:32;;;;;;;;;;;;;;;29.52;53.82;101180.75;5073271;27;66971;-41
2023/03/15 03:15:03;;;;;;;;;;;;;;;29.55;53.30;101175.78;5044204;28;70166;-40
2023/03/15 03:17:36;;;;;;;;;;;;;;;29.58;53.20;101177.22;5053052;28;66105;-42
2023/03/15 03:20:08;;;;;;;;;;;;;;;29.60;53.76;101176.00;5042637;28;70835;-40
2023/03/15 03:22:43;;;;;;;;;;;;;;;29.64;53.15;101162.09;5052608;28;66840;-41
2023/03/15 03:25:13;;;;;;;;;;;;;;;29.66;53.61;101163.56;5049760;28;69597;-41
2023/03/15 03:27:44;;;;;;;;;;;;;;;29.68;53.05;101164.19;5046303;28;65982;-43
2023/03/15 03:30:15;;;;;;;;;;;;;;;29.71;53.00;101163.78;5050216;28;70020;-41
2023/03/15 03:32:52;;;;;;;;;;;;;;;29.74;52.88;101157.97;5051988;28;66515;-39
2023/03/15 03:35:22;;;;;;;;;;;;;;;29.76;52.76;101155.91;5080057;27;70160;-41
2023/03/15 03:37:52;;;;;;;;;;;;;;;29.78;52.57;101156.53;5055142;28;66775;-41
2023/03/15 03:40:28;;;;;;;;;;;;;;;29.81;53.12;101150.69;5067208;27;68389;-40
2023/03/15 03:42:59;;;;;;;;;;;;;;;29.83;52.46;101145.91;5053953;27;66923;-41
2023/03/15 03:45:34;;;;;;;;;;;;;;;29.88;52.35;101147.16;5039845;28;70495;-40
2023/03/15 03:48:05;;;;;;;;;;;;;;;29.91;52.78;101144.03;5051131;27;66349;-41
2023/03/15 03:50:35;;;;;;;;;;;;;;;29.93;52.25;101141.97;5045816;27;70734;-40
2023/03/15 03:53:05;;;;;;;;;;;;;;;29.95;52.58;101132.59;5045630;28;65435;-41
2023/03/15 03:55:37;;;;;;;;;;;;;;;29.97;52.41;101121.56;5055654;27;70311;-42
2023/03/15 03:58:07;;;;;;;;;;;;;;;30.00;52.40;101116.56;5048738;27;65318;-42
2023/03/15 04:00:58;;;;;;;;;;;;;;;30.04;52.00;101111.59;5048283;28;70058;-42
2023/03/15 04:03:32;;;;;;;;;;;;;;;30.06;51.76;101101.38;5048926;28;65885;-41
2023/03/15 04:06:14;;;;;;;;;;;;;;;30.08;51.93;101104.69;5047762;28;70211;-41
2023/03/15 04:08:48;;;;;;;;;;;;;;;30.11;51.83;101090.75;5045264;28;66145;-42
2023/03/15 04:11:25;;;;;;;;;;;;;;;29.89;52.16;101049.56;5050892;28;70450;-42
2023/03/15 04:13:59;;;;;;;;;;;;;;;30.16;51.63;101080.13;5070513;27;66669;-40
2023/03/15 04:16:31;;;;;;;;;;;;;;;30.18;51.50;101078.06;5044965;28;69561;-41
2023/03/15 04:19:04;;;;;;;;;;;;;;;30.21;51.65;101072.22;5070554;27;66406;-41
2023/03/15 04:21:36;;;;;;;;;;;;;;;30.24;51.34;101077.25;5044235;28;70023;-42
2023/03/15 04:24:22;;;;;;;;;;;;;;;30.28;51.85;101072.22;5051961;28;66697;-42
2023/03/15 04:27:25;;;;;;;;;;;;;;;30.28;51.71;101062.25;5042418;28;70674;-41
2023/03/15 04:30:25;;;;;;;;;;;;;;;30.32;51.77;101056.41;5043311;28;67315;-40
2023/03/15 04:33:28;;;;;;;;;;;;;;;30.35;51.56;101061.41;5053635;27;70821;-42
2023/03/15 04:36:07;;;;;;;;;;;;;;;30.36;51.69;101046.81;5047892;27;66844;-41
2023/03/15 04:39:04;;;;;;;;;;;;;;;30.38;51.02;101028.50;5048368;27;69843;-44
2023/03/15 04:42:13;;;;;;;;;;;;;;;30.42;50.93;101029.72;5052413;27;65094;-42
2023/03/15 04:45:26;;;;;;;;;;;;;;;30.44;51.16;101022.22;4997166;28;70522;-40
2023/03/15 04:48:16;;;;;;;;;;;;;;;30.46;51.45;101014.72;4959929;28;66763;-41
2023/03/15 04:51:07;;;;;;;;;;;;;;;30.47;51.36;101000.16;5032475;28;69535;-43
2023/03/15 04:53:50;;;;;;;;;;;;;;;30.49;51.24;101006.19;5087932;27;65823;-42
2023/03/15 04:56:46;;;;;;;;;;;;;;;30.51;51.43;100993.28;5044786;28;69800;-41
2023/03/15 04:59:56;;;;;;;;;;;;;;;30.53;50.94;100985.75;5046490;28;67085;-41
2023/03/15 05:02:46;;;;;;;;;;;;;;;30.56;51.32;100979.91;5041409;28;70120;-51
2023/03/15 05:05:28;;;;;;;;;;;;;;;30.55;50.61;100975.53;5056878;28;66928;-39
2023/03/15 05:08:19;;;;;;;;;;;;;;;30.58;51.06;100964.28;5055800;28;69221;-40
2023/03/15 05:11:09;;;;;;;;;;;;;;;30.61;50.83;100954.88;5042035;28;66873;-40
2023/03/15 05:13:50;;;;;;;;;;;;;;;30.62;51.14;100954.69;5066113;27;70203;-40
2023/03/15 05:16:54;;;;;;;;;;;;;;;30.65;50.99;100943.41;5053820;28;67555;-46
2023/03/15 05:19:42;;;;;;;;;;;;;;;30.67;50.41;100935.91;5061808;27;70060;-40
2023/03/15 05:22:31;;;;;;;;;;;;;;;30.71;50.66;100942.53;5052286;27;65165;-42
2023/03/15 05:25:23;;;;;;;;;;;;;;;30.73;50.87;100940.47;5041534;27;70532;-40
2023/03/15 05:28:18;;;;;;;;;;;;;;;30.78;50.89;100933.53;5039826;28;66192;-40
2023/03/15 05:30:57;;;;;;;;;;;;;;;30.79;50.58;100921.69;5046506;27;70740;-40
2023/03/15 05:33:47;;;;;;;;;;;;;;;30.84;50.38;100927.28;5037954;28;66832;-41
2023/03/15 05:36:35;;;;;;;;;;;;;;;30.86;50.20;100914.34;5040861;28;70272;-42
2023/03/15 05:39:33;;;;;;;;;;;;;;;30.90;50.48;100912.88;5051022;28;66643;-42
2023/03/15 05:42:06;;;;;;;;;;;;;;;30.92;50.00;100911.63;5044016;28;70158;-42
2023/03/15 05:44:54;;;;;;;;;;;;;;;30.94;50.35;100906.78;5049539;28;65538;-41
2023/03/15 05:47:42;;;;;;;;;;;;;;;30.97;50.00;100891.97;5047166;27;70104;-43
2023/03/15 05:50:33;;;;;;;;;;;;;;;30.99;49.65;100906.13;5072037;27;66700;-42
2023/03/15 05:53:35;;;;;;;;;;;;;;;31.04;49.94;100881.09;5045193;28;69664;-43
2023/03/15 05:56:11;;;;;;;;;;;;;;;31.07;49.50;100870.63;5046115;28;66205;-43
2023/03/15 05:59:01;;;;;;;;;;;;;;;31.09;49.83;100857.72;5065002;28;70328;-41
2023/03/15 06:02:01;;;;;;;;;;;;;;;31.12;49.80;100865.38;5032235;28;66730;-40
2023/03/15 06:04:41;;;;;;;;;;;;;;;31.14;49.62;100860.56;5077602;27;70170;-41
2023/03/15 06:07:16;;;;;;;;;;;;;;;31.19;49.60;100850.94;5039644;27;66175;-41
2023/03/15 06:09:46;;;;;;;;;;;;;;;31.22;49.17;100851.31;5046673;28;71014;-41
2023/03/15 06:12:18;;;;;;;;;;;;;;;31.24;49.42;100860.06;5048339;28;66153;-40
2023/03/15 06:14:50;;;;;;;;;;;;;;;31.27;49.18;100847.94;5047544;28;70394;-40
2023/03/15 06:17:20;;;;;;;;;;;;;;;31.31;49.31;100841.00;5050948;28;66817;-48
2023/03/15 06:19:50;;;;;;;;;;;;;;;31.33;49.01;100836.19;5037642;28;70595;-42
2023/03/15 06:22:23;;;;;;;;;;;;;;;31.36;49.11;100838.50;5045765;28;66736;-41
2023/03/15 06:24:58;;;;;;;;;;;;;;;31.38;49.09;100823.66;5038777;28;70504;-42
2023/03/15 06:27:29;;;;;;;;;;;;;;;31.43;48.81;100825.72;5048144;27;66687;-42
2023/03/15 06:29:59;;;;;;;;;;;;;;;31.45;49.11;100829.00;5052601;28;69308;-45
2023/03/15 06:32:30;;;;;;;;;;;;;;;31.50;49.04;100826.44;5047406;28;67003;-41
2023/03/15 06:35:00;;;;;;;;;;;;;;;31.52;48.71;100818.09;5053502;28;71153;-41
2023/03/15 06:37:31;;;;;;;;;;;;;;;31.55;48.75;100818.47;5073589;27;66027;-40
2023/03/15 06:40:06;;;;;;;;;;;;;;;31.59;48.63;100814.25;5052971;27;70430;-43
2023/03/15 06:42:37;;;;;;;;;;;;;;;31.61;48.14;100806.72;5043766;28;66878;-43
2023/03/15 06:45:10;;;;;;;;;;;;;;;31.66;48.18;100797.06;5042947;28;69908;-42
2023/03/15 06:47:41;;;;;;;;;;;;;;;31.69;48.35;100791.19;5074771;27;67115;-41
2023/03/15 06:50:13;;;;;;;;;;;;;;;31.75;48.17;100790.28;5060719;27;70348;-40
2023/03/15 06:52:43;;;;;;;;;;;;;;;31.75;48.16;100785.69;5044695;28;66737;-41
2023/03/15 06:55:16;;;;;;;;;;;;;;;31.80;48.23;100785.00;5048520;28;70683;-41
2023/03/15 06:57:47;;;;;;;;;;;;;;;31.85;48.13;100784.31;5053002;28;65256;-41
2023/03/15 07:00:17;;;;;;;;;;;;;;;31.87;47.92;100771.34;5045544;28;69958;-41
2023/03/15 07:02:48;;;;;;;;;;;;;;;31.90;48.09;100766.31;5049542;28;67292;-41
2023/03/15 07:05:18;;;;;;;;;;;;;;;31.95;47.83;100774.59;5044567;27;70258;-41
2023/03/15 07:07:49;;;;;;;;;;;;;;;31.99;47.92;100770.38;5040325;28;67189;-40
2023/03/15 07:10:20;;;;;;;;;;;;;;;32.03;47.49;100766.13;5042303;28;70645;-41
2023/03/15 07:12:50;;;;;;;;;;;;;;;32.08;47.41;100762.72;5039935;28;66727;-41
2023/03/15 07:15:21;;;;;;;;;;;;;;;32.10;47.39;100755.19;5036646;28;70214;-40
2023/03/15 07:17:51;;;;;;;;;;;;;;;32.15;47.62;100757.19;5043563;28;67010;-41
2023/03/15 07:20:22;;;;;;;;;;;;;;;32.19;47.37;100758.41;5039435;27;70123;-42
2023/03/15 07:22:52;;;;;;;;;;;;;;;32.22;47.25;100747.06;5048789;28;66870;-40
2023/03/15 07:25:24;;;;;;;;;;;;;;;32.26;46.95;100748.25;5041771;27;69282;-42
2023/03/15 07:27:54;;;;;;;;;;;;;;;32.27;47.03;100739.88;5052124;28;66162;-39
2023/03/15 07:30:26;;;;;;;;;;;;;;;32.32;47.21;100743.78;5053107;28;69978;-41
2023/03/15 07:32:56;;;;;;;;;;;;;;;32.34;47.04;100734.34;5041431;28;66850;-41
2023/03/15 07:35:28;;;;;;;;;;;;;;;32.38;46.89;100735.53;5039680;28;70540;-40
2023/03/15 07:37:58;;;;;;;;;;;;;;;32.42;46.85;100736.72;5047610;28;66239;-40
2023/03/15 07:40:29;;;;;;;;;;;;;;;32.45;46.75;100725.38;5041883;28;69585;-41
2023/03/15 07:42:59;;;;;;;;;;;;;;;32.51;46.71;100733.69;5052782;28;65692;-40
2023/03/15 07:45:30;;;;;;;;;;;;;;;32.53;46.51;100728.84;5042207;28;70668;-40
2023/03/15 07:48:00;;;;;;;;;;;;;;;32.56;46.35;100731.09;5074571;27;66619;-40
2023/03/15 07:50:31;;;;;;;;;;;;;;;32.60;46.26;100732.28;5045667;28;70297;-41
2023/03/15 07:53:02;;;;;;;;;;;;;;;32.61;46.26;100728.50;5042619;27;65896;-42
2023/03/15 07:55:33;;;;;;;;;;;;;;;32.65;46.23;100735.09;5048013;28;69712;-41
2023/03/15 07:58:04;;;;;;;;;;;;;;;32.67;45.97;100731.09;5052985;28;66153;-40
2023/03/15 08:00:34;;;;;;;;;;;;;;;32.70;45.94;100724.34;5051422;28;71459;-41
2023/03/15 08:03:06;;;;;;;;;;;;;;;32.75;45.95;100723.66;5050237;28;66388;-41
2023/03/15 08:05:37;;;;;;;;;;;;;;;32.77;45.79;100719.66;5046447;28;69294;-40
2023/03/15 08:08:07;;;;;;;;;;;;;;;32.82;45.59;100714.34;5045890;28;66356;-39
2023/03/15 08:10:37;;;;;;;;;;;;;;;32.85;45.67;100713.03;5070516;27;70801;-42
2023/03/15 08:13:08;;;;;;;;;;;;;;;32.88;45.59;100707.94;5046062;28;66532;-42
2023/03/15 08:15:38;;;;;;;;;;;;;;;32.93;45.57;100709.91;5040258;28;70739;-41
2023/03/15 08:18:10;;;;;;;;;;;;;;;32.96;45.50;100708.63;5051966;28;66065;-41
2023/03/15 08:20:41;;;;;;;;;;;;;;;32.99;45.44;100708.13;5051424;27;70973;-43
2023/03/15 08:23:15;;;;;;;;;;;;;;;33.02;45.42;100713.16;5053146;28;66237;-42
2023/03/15 08:25:45;;;;;;;;;;;;;;;33.06;45.36;100714.31;5056465;28;69844;-42
2023/03/15 08:28:15;;;;;;;;;;;;;;;33.09;45.37;100711.94;5051724;28;65762;-41
2023/03/15 08:30:46;;;;;;;;;;;;;;;33.14;44.97;100716.66;5049461;28;69533;-42
2023/03/15 08:33:16;;;;;;;;;;;;;;;33.17;44.91;100710.75;5050528;28;66022;-41
2023/03/15 08:35:55;;;;;;;;;;;;;;;33.20;45.18;100721.13;5053725;27;69487;-41
2023/03/15 08:38:25;;;;;;;;;;;;;;;33.23;45.06;100715.22;5076099;27;65978;-41
2023/03/15 08:40:57;;;;;;;;;;;;;;;33.27;44.79;100721.84;5044193;28;69787;-42
2023/03/15 08:43:27;;;;;;;;;;;;;;;33.30;44.88;100718.63;5050183;28;67491;-40
2023/03/15 08:45:58;;;;;;;;;;;;;;;33.34;44.76;100727.94;5048461;28;69533;-40
2023/03/15 08:48:30;;;;;;;;;;;;;;;33.38;44.93;100726.41;5048285;28;65525;-42
2023/03/15 08:51:04;;;;;;;;;;;;;;;33.43;44.88;100724.84;5048305;28;70134;-41
2023/03/15 08:53:34;;;;;;;;;;;;;;;33.46;44.66;100727.94;5052326;28;67012;-41
2023/03/15 08:56:05;;;;;;;;;;;;;;;33.50;44.54;100731.00;5078645;27;70250;-40
2023/03/15 08:58:35;;;;;;;;;;;;;;;33.54;44.54;100740.34;5056653;28;66043;-40
2023/03/15 09:01:05;;;;;;;;;;;;;;;32.92;44.44;100635.75;5049310;28;69212;-40
2023/03/15 09:03:35;;;;;;;;;;;;;;;33.61;44.30;100742.94;5047751;28;66283;-39
2023/03/15 09:06:06;;;;;;;;;;;;;;;33.65;44.34;100744.91;5045846;28;70270;-40
2023/03/15 09:08:36;;;;;;;;;;;;;;;33.67;44.07;100745.50;5043209;28;66669;-43
2023/03/15 09:11:07;;;;;;;;;;;;;;;33.71;44.06;100749.41;5046852;27;69290;-40
2023/03/15 09:13:37;;;;;;;;;;;;;;;33.73;43.81;100747.22;5081353;27;66226;-41
2023/03/15 09:16:07;;;;;;;;;;;;;;;33.77;43.79;100750.31;5050115;28;69777;-42
2023/03/15 09:18:39;;;;;;;;;;;;;;;33.81;43.86;100754.19;5052706;28;66852;-39
2023/03/15 09:21:09;;;;;;;;;;;;;;;33.85;43.73;100760.81;5045480;28;70311;-42
2023/03/15 09:23:39;;;;;;;;;;;;;;;33.88;43.66;100764.91;5051508;28;65456;-40
2023/03/15 09:26:10;;;;;;;;;;;;;;;33.91;43.27;100767.16;5074971;27;69961;-41
2023/03/15 09:28:41;;;;;;;;;;;;;;;33.96;43.39;100772.69;5045446;27;66024;-41
2023/03/15 09:31:11;;;;;;;;;;;;;;;33.97;43.24;100771.63;5082546;27;69014;-41
2023/03/15 09:33:45;;;;;;;;;;;;;;;33.98;43.01;100774.09;5048003;28;65984;-40
2023/03/15 09:36:15;;;;;;;;;;;;;;;34.02;42.84;100777.19;5079556;27;70641;-40
2023/03/15 09:38:46;;;;;;;;;;;;;;;34.03;42.87;100786.97;5045019;28;65916;-42
2023/03/15 09:41:29;;;;;;;;;;;;;;;34.05;42.63;100787.59;5057174;28;70441;-42
2023/03/15 09:44:06;;;;;;;;;;;;;;;34.06;42.71;100789.25;5057202;27;65892;-41
2023/03/15 09:46:43;;;;;;;;;;;;;;;34.08;42.63;100792.56;5055545;28;70364;-42
2023/03/15 09:49:18;;;;;;;;;;;;;;;34.10;42.15;100795.88;5083739;27;66215;-42
2023/03/15 09:51:56;;;;;;;;;;;;;;;33.94;42.41;100774.84;5042391;28;70502;-42
2023/03/15 09:54:43;;;;;;;;;;;;;;;34.14;42.33;100797.00;5045863;28;66586;-40
2023/03/15 09:57:20;;;;;;;;;;;;;;;34.16;42.20;100800.31;5043128;28;70193;-40
2023/03/15 09:59:53;;;;;;;;;;;;;;;34.16;42.52;100805.78;5043656;28;65398;-42
2023/03/15 10:02:26;;;;;;;;;;;;;;;34.17;42.09;100815.56;5042846;28;70010;-43
2023/03/15 10:05:00;;;;;;;;;;;;;;;34.17;42.09;100817.47;5045904;28;67122;-42
2023/03/15 10:07:31;;;;;;;;;;;;;;;34.17;42.07;100818.31;5045760;27;69063;-42
2023/03/15 10:10:06;;;;;;;;;;;;;;;34.18;42.23;100814.50;5044269;28;66093;-41
2023/03/15 10:12:41;;;;;;;;;;;;;;;34.18;42.18;100822.66;5045293;28;69350;-41
2023/03/15 10:15:43;;;;;;;;;;;;;;;34.17;42.21;100818.31;5042375;28;65648;-40
2023/03/15 10:18:26;;;;;;;;;;;;;;;34.17;42.29;100829.19;5056327;27;70236;-40
2023/03/15 10:21:11;;;;;;;;;;;;;;;34.18;42.26;100835.44;5044984;27;66139;-40
2023/03/15 10:23:51;;;;;;;;;;;;;;;34.17;42.20;100829.19;5043119;28;69987;-42
2023/03/15 10:26:23;;;;;;;;;;;;;;;34.17;42.25;100829.19;5044269;28;66867;-41
2023/03/15 10:28:54;;;;;;;;;;;;;;;34.16;42.30;100841.16;5043122;28;70044;-41
2023/03/15 10:31:26;;;;;;;;;;;;;;;34.15;41.99;100839.50;5043575;27;66646;-41
2023/03/15 10:34:11;;;;;;;;;;;;;;;34.14;41.96;100840.56;5044789;27;71498;-40
2023/03/15 10:36:48;;;;;;;;;;;;;;;34.12;42.26;100853.59;5041694;27;65931;-41
2023/03/15 10:39:18;;;;;;;;;;;;;;;34.08;41.82;100847.00;5043676;28;69358;-40
2023/03/15 10:41:49;;;;;;;;;;;;;;;34.06;42.22;100854.56;5058186;27;65656;-42
2023/03/15 10:44:23;;;;;;;;;;;;;;;34.01;42.02;100854.44;5042785;28;69034;-40
2023/03/15 10:46:59;;;;;;;;;;;;;;;33.62;42.33;100859.63;5041834;28;66615;-40
2023/03/15 10:49:41;;;;;;;;;;;;;;;33.36;42.60;100861.75;5043584;28;70945;-39
2023/03/15 10:52:43;;;;;;;;;;;;;;;33.21;43.25;100869.59;5038821;28;65585;-41
2023/03/15 10:55:15;;;;;;;;;;;;;;;32.97;43.34;100862.47;5039547;28;70343;-41
2023/03/15 10:57:54;;;;;;;;;;;;;;;32.85;43.87;100874.13;5048275;27;65215;-41
2023/03/15 11:00:25;;;;;;;;;;;;;;;32.74;44.32;100874.13;5047937;28;70443;-39
2023/03/15 11:03:05;;;;;;;;;;;;;;;32.34;44.74;100806.81;5043078;28;65881;-40
2023/03/15 11:05:45;;;;;;;;;;;;;;;32.87;45.03;100891.00;5057013;27;69590;-43
2023/03/15 11:08:18;;;;;;;;;;;;;;;32.75;45.52;100898.31;5041174;28;66244;-42
2023/03/15 11:10:58;;;;;;;;;;;;;;;32.71;46.05;100880.84;5044534;27;70632;-43
2023/03/15 11:13:29;;;;;;;;;;;;;;;32.99;45.56;100898.34;5044204;28;66701;-43
2023/03/15 11:16:02;;;;;;;;;;;;;;;33.12;45.05;100900.88;5042728;28;69551;-42
2023/03/15 11:18:37;;;;;;;;;;;;;;;33.21;45.00;100904.06;5049613;28;66953;-42
2023/03/15 11:21:09;;;;;;;;;;;;;;;33.29;44.84;100915.44;5051443;28;69895;-43
2023/03/15 11:23:42;;;;;;;;;;;;;;;33.31;44.89;100901.59;5049297;28;66096;-42
2023/03/15 11:26:16;;;;;;;;;;;;;;;33.33;44.95;100911.19;5047469;28;70607;-41
2023/03/15 11:29:05;;;;;;;;;;;;;;;33.37;44.84;100911.53;5039969;28;65947;-44
2023/03/15 11:31:35;;;;;;;;;;;;;;;33.37;44.90;100925.94;5044114;27;70775;-42
2023/03/15 11:34:08;;;;;;;;;;;;;;;33.35;45.15;100930.81;5042476;28;64850;-41
2023/03/15 11:36:40;;;;;;;;;;;;;;;33.35;45.21;100938.97;5045008;28;70559;-42
2023/03/15 11:39:14;;;;;;;;;;;;;;;33.34;45.33;100945.47;5047313;28;65420;-42
2023/03/15 11:42:11;;;;;;;;;;;;;;;33.33;45.33;100946.53;5051713;28;70360;-41
2023/03/15 11:44:53;;;;;;;;;;;;;;;33.32;45.53;100955.75;5046733;28;66115;-40
2023/03/15 11:47:37;;;;;;;;;;;;;;;33.30;46.10;100949.72;5045850;28;70482;-40
2023/03/15 11:50:12;;;;;;;;;;;;;;;33.28;46.01;100957.28;5042249;27;66180;-41
2023/03/15 11:52:46;;;;;;;;;;;;;;;33.28;46.04;100961.88;5040096;28;70838;-41
2023/03/15 11:55:23;;;;;;;;;;;;;;;33.24;46.31;100961.53;5051852;28;66573;-42
2023/03/15 11:57:56;;;;;;;;;;;;;;;33.21;46.42;100966.59;5051795;28;71059;-43
2023/03/15 12:00:36;;;;;;;;;;;;;;;33.19;46.24;100969.56;5055719;28;66305;-42
2023/03/15 12:03:32;;;;;;;;;;;;;;;33.18;46.57;100967.88;5050841;28;70550;-44
2023/03/15 12:06:05;;;;;;;;;;;;;;;33.15;46.52;100984.66;5055595;28;65985;-44
2023/03/15 12:08:50;;;;;;;;;;;;;;;33.11;46.86;100972.63;5047652;28;69999;-42
2023/03/15 12:11:20;;;;;;;;;;;;;;;32.92;47.79;100975.38;5043460;28;66817;-43
2023/03/15 12:13:57;;;;;;;;;;;;;;;32.68;49.46;100984.50;5048095;28;70256;-42
2023/03/15 12:16:29;;;;;;;;;;;;;;;32.49;50.73;100987.28;5051124;28;66370;-41
2023/03/15 12:19:09;;;;;;;;;;;;;;;32.38;51.57;100989.91;5054283;28;69984;-42
2023/03/15 12:21:43;;;;;;;;;;;;;;;32.27;52.40;100994.22;5086302;27;66950;-43
2023/03/15 12:24:22;;;;;;;;;;;;;;;32.21;52.77;101005.97;5051510;28;70151;-43
2023/03/15 12:27:03;;;;;;;;;;;;;;;32.13;53.33;101009.00;5047143;28;65796;-44
2023/03/15 12:29:34;;;;;;;;;;;;;;;32.05;53.70;101010.94;5043256;28;70338;-42
2023/03/15 12:32:12;;;;;;;;;;;;;;;32.01;53.68;101017.88;5045754;28;66589;-43
2023/03/15 12:34:45;;;;;;;;;;;;;;;31.97;53.60;101018.53;5047043;28;70593;-42
2023/03/15 12:37:18;;;;;;;;;;;;;;;31.94;53.47;101027.97;5045366;28;66111;-40
2023/03/15 12:40:21;;;;;;;;;;;;;;;31.91;53.33;101028.41;5043405;28;70635;-42
2023/03/15 12:42:56;;;;;;;;;;;;;;;31.77;52.56;101033.09;5043745;28;65975;-40
2023/03/15 12:45:44;;;;;;;;;;;;;;;31.69;52.62;101040.69;5047569;28;69847;-41
2023/03/15 12:48:20;;;;;;;;;;;;;;;31.58;52.79;101043.06;5051673;27;65574;-39
2023/03/15 12:50:52;;;;;;;;;;;;;;;31.61;54.47;101042.63;5047715;28;68635;-43
2023/03/15 12:53:28;;;;;;;;;;;;;;;31.64;54.86;101043.22;5044972;28;66565;-41
2023/03/15 12:56:16;;;;;;;;;;;;;;;31.61;55.12;101049.94;5051473;28;70721;-43
2023/03/15 12:58:50;;;;;;;;;;;;;;;31.41;52.76;101060.94;5047305;28;65753;-42
2023/03/15 13:01:25;;;;;;;;;;;;;;;31.23;51.04;101050.81;5056727;27;70029;-43
2023/03/15 13:04:02;;;;;;;;;;;;;;;31.09;50.73;101063.63;5052193;28;65596;-43
2023/03/15 13:06:45;;;;;;;;;;;;;;;31.00;50.48;101064.91;5047928;28;70724;-39
2023/03/15 13:09:15;;;;;;;;;;;;;;;30.50;49.01;100999.72;5052170;28;65639;-42
2023/03/15 13:12:06;;;;;;;;;;;;;;;30.87;48.60;101078.50;5046278;27;70718;-41
2023/03/15 13:14:50;;;;;;;;;;;;;;;30.71;47.65;101083.34;5045960;28;66915;-42
2023/03/15 13:17:39;;;;;;;;;;;;;;;30.63;46.96;101085.47;5075743;27;69526;-42
2023/03/15 13:20:13;;;;;;;;;;;;;;;30.52;46.72;101097.78;5041069;28;65918;-41